createdAt,value
2018-07-20T00:00:08.782Z,10.50
2018-07-20T00:02:38.172Z,11.30
2018-07-20T00:05:07.803Z,9.43
2018-07-20T00:07:37.321Z,11.80
2018-07-20T00:10:06.796Z,10.70
2018-07-20T00:12:36.472Z,9.43
2018-07-20T00:15:06.032Z,9.23
2018-07-20T00:17:35.569Z,12.30
2018-07-20T00:20:05.691Z,12.10
2018-07-20T00:22:35.331Z,8.70
2018-07-20T00:25:04.935Z,10.10
2018-07-20T00:27:34.527Z,9.87
2018-07-20T00:30:04.331Z,12.50
2018-07-20T00:32:33.828Z,10.27
2018-07-20T00:35:03.309Z,9.07
2018-07-20T00:37:32.742Z,9.13
2018-07-20T00:40:02.187Z,13.50
2018-07-20T00:42:31.871Z,15.53
2018-07-20T00:45:00.982Z,10.90
2018-07-20T00:47:30.296Z,16.80
2018-07-20T00:49:59.948Z,11.63
2018-07-20T00:52:29.630Z,12.33
2018-07-20T00:54:59.101Z,15.57
2018-07-20T00:57:28.583Z,9.50
2018-07-20T00:59:57.942Z,14.50
2018-07-20T01:02:27.431Z,15.63
2018-07-20T01:04:56.822Z,15.60
2018-07-20T01:07:26.379Z,11.57
2018-07-20T01:09:55.966Z,12.90
2018-07-20T01:12:25.339Z,14.73
2018-07-20T01:14:54.732Z,16.63
2018-07-20T01:17:24.107Z,11.47
2018-07-20T01:19:53.563Z,15.67
2018-07-20T01:22:23.111Z,13.13
2018-07-20T01:24:52.685Z,14.60
2018-07-20T01:27:22.304Z,19.33
2018-07-20T01:29:51.714Z,16.20
2018-07-20T01:32:21.112Z,12.70
2018-07-20T01:34:50.658Z,14.47
2018-07-20T01:37:19.691Z,14.23
2018-07-20T01:39:49.063Z,12.77
2018-07-20T01:42:18.779Z,14.90
2018-07-20T01:44:48.269Z,12.30
2018-07-20T01:47:17.583Z,19.50
2018-07-20T01:49:47.003Z,16.47
2018-07-20T01:52:16.517Z,18.43
2018-07-20T01:54:45.939Z,14.50
2018-07-20T01:57:15.268Z,17.57
2018-07-20T01:59:45.081Z,22.37
2018-07-20T02:02:14.712Z,21.43
2018-07-20T02:04:44.547Z,21.53
2018-07-20T02:07:13.879Z,15.70
2018-07-20T02:09:43.338Z,15.60
2018-07-20T02:12:12.725Z,19.87
2018-07-20T02:14:42.272Z,14.67
2018-07-20T02:17:11.915Z,16.57
2018-07-20T02:19:41.367Z,15.03
2018-07-20T02:22:10.770Z,17.43
2018-07-20T02:24:40.378Z,15.17
2018-07-20T02:27:09.897Z,16.83
2018-07-20T02:29:39.435Z,17.10
2018-07-20T02:32:08.854Z,17.20
2018-07-20T02:34:38.361Z,15.00
2018-07-20T02:37:08.145Z,17.40
2018-07-20T02:39:37.617Z,15.70
2018-07-20T02:42:07.155Z,17.40
2018-07-20T02:44:36.865Z,21.17
2018-07-20T02:47:06.712Z,15.50
2018-07-20T02:49:36.364Z,17.60
2018-07-20T02:52:05.837Z,19.73
2018-07-20T02:54:35.259Z,14.10
2018-07-20T02:57:04.775Z,18.47
2018-07-20T02:59:34.245Z,16.80
2018-07-20T03:02:04.038Z,15.10
2018-07-20T03:04:33.450Z,15.10
2018-07-20T03:07:03.064Z,18.70
2018-07-20T03:09:32.503Z,16.80
2018-07-20T03:12:01.808Z,14.30
2018-07-20T03:14:31.096Z,15.20
2018-07-20T03:17:00.619Z,16.77
2018-07-20T03:19:29.980Z,17.87
2018-07-20T03:21:59.486Z,13.63
2018-07-20T03:24:28.776Z,16.83
2018-07-20T03:26:58.142Z,17.23
2018-07-20T03:29:27.579Z,19.20
2018-07-20T03:31:56.930Z,16.67
2018-07-20T03:34:26.307Z,14.93
2018-07-20T03:36:55.602Z,17.83
2018-07-20T03:39:25.023Z,17.20
2018-07-20T03:41:54.360Z,17.40
2018-07-20T03:44:23.762Z,16.13
2018-07-20T03:46:52.859Z,22.50
2018-07-20T03:49:22.355Z,19.70
2018-07-20T03:51:51.667Z,17.70
2018-07-20T03:54:21.182Z,18.73
2018-07-20T03:56:50.584Z,17.27
2018-07-20T03:59:20.158Z,16.57
2018-07-20T04:01:49.414Z,15.60
2018-07-20T04:04:18.738Z,19.80
2018-07-20T04:06:48.040Z,16.27
2018-07-20T04:09:17.419Z,16.83
2018-07-20T04:11:46.855Z,18.30
2018-07-20T04:14:16.191Z,23.70
2018-07-20T04:16:45.666Z,21.50
2018-07-20T04:19:14.986Z,19.67
2018-07-20T04:21:44.387Z,20.93
2018-07-20T04:24:14.019Z,19.57
2018-07-20T04:26:43.429Z,20.90
2018-07-20T04:29:12.759Z,21.70
2018-07-20T04:31:42.057Z,22.53
2018-07-20T04:34:11.387Z,22.33
2018-07-20T04:36:40.772Z,18.20
2018-07-20T04:39:12.802Z,26.03
2018-07-20T04:41:42.967Z,20.37
2018-07-20T04:44:12.387Z,15.73
2018-07-20T04:46:41.823Z,18.73
2018-07-20T04:49:11.259Z,16.37
2018-07-20T04:51:40.878Z,16.80
2018-07-20T04:54:10.293Z,14.73
2018-07-20T04:56:39.478Z,15.30
2018-07-20T04:59:08.976Z,14.43
2018-07-20T05:01:38.802Z,18.40
2018-07-20T05:04:08.496Z,17.20
2018-07-20T05:06:37.896Z,19.87
2018-07-20T05:09:09.243Z,18.83
2018-07-20T05:11:39.332Z,14.60
2018-07-20T05:27:08.158Z,14.07
2018-07-20T05:29:37.646Z,15.87
2018-07-20T05:32:07.054Z,17.30
2018-07-20T05:34:36.558Z,18.10
2018-07-20T05:37:06.056Z,21.43
2018-07-20T05:39:35.499Z,16.53
2018-07-20T05:42:04.903Z,18.73
2018-07-20T05:44:34.369Z,14.57
2018-07-20T05:47:03.823Z,18.77
2018-07-20T05:49:33.689Z,16.43
2018-07-20T05:52:03.111Z,19.43
2018-07-20T05:54:32.599Z,20.00
2018-07-20T05:57:01.891Z,13.63
2018-07-20T05:59:31.303Z,15.83
2018-07-20T06:02:00.831Z,19.63
2018-07-20T06:04:30.419Z,16.03
2018-07-20T06:07:00.104Z,12.10
2018-07-20T06:09:29.746Z,17.20
2018-07-20T06:11:59.595Z,13.67
2018-07-20T06:14:29.301Z,11.70
2018-07-20T06:16:58.934Z,12.80
2018-07-20T06:19:28.597Z,12.33
2018-07-20T06:21:57.923Z,13.43
2018-07-20T06:24:27.566Z,9.80
2018-07-20T06:26:56.944Z,12.57
2018-07-20T06:29:26.295Z,9.73
2018-07-20T06:31:55.667Z,13.73
2018-07-20T06:34:25.227Z,11.23
2018-07-20T06:36:54.671Z,9.40
2018-07-20T06:39:24.124Z,12.17
2018-07-20T06:41:53.551Z,9.57
2018-07-20T06:44:23.276Z,8.33
2018-07-20T06:46:52.995Z,9.80
2018-07-20T06:49:22.472Z,10.50
2018-07-20T06:51:52.238Z,8.57
2018-07-20T06:54:21.921Z,16.43
2018-07-20T06:56:51.337Z,11.43
2018-07-20T06:59:20.731Z,8.60
2018-07-20T07:01:50.558Z,7.80
2018-07-20T07:04:19.911Z,9.30
2018-07-20T07:06:49.303Z,7.33
2018-07-20T07:09:19.076Z,11.90
2018-07-20T07:11:48.468Z,7.00
2018-07-20T07:14:23.100Z,6.90
2018-07-20T07:16:52.768Z,8.07
2018-07-20T07:19:28.887Z,11.30
2018-07-20T07:21:59.306Z,7.60
2018-07-20T07:24:28.768Z,8.67
2018-07-20T07:26:58.241Z,10.30
2018-07-20T07:29:28.307Z,9.57
2018-07-20T07:31:58.161Z,6.87
2018-07-20T07:34:27.501Z,6.50
2018-07-20T07:36:56.872Z,12.30
2018-07-20T07:39:26.351Z,9.27
2018-07-20T07:41:55.786Z,7.73
2018-07-20T07:44:25.138Z,8.83
2018-07-20T07:46:55.376Z,8.30
2018-07-20T07:49:24.817Z,9.63
2018-07-20T07:51:54.046Z,9.83
2018-07-20T07:54:23.516Z,11.03
2018-07-20T07:56:52.878Z,6.43
2018-07-20T07:59:22.591Z,14.57
2018-07-20T08:01:51.942Z,7.97
2018-07-20T08:04:21.639Z,11.83
2018-07-20T08:06:50.998Z,10.30
2018-07-20T08:09:20.496Z,10.17
2018-07-20T08:11:49.965Z,9.67
2018-07-20T08:14:19.384Z,10.77
2018-07-20T08:16:48.862Z,8.47
2018-07-20T08:19:18.211Z,7.00
2018-07-20T08:21:47.588Z,7.27
2018-07-20T08:24:16.935Z,7.13
2018-07-20T08:26:46.449Z,5.47
2018-07-20T08:29:15.995Z,9.77
2018-07-20T08:31:45.655Z,8.27
2018-07-20T08:34:15.033Z,7.00
2018-07-20T08:36:44.628Z,11.93
2018-07-20T08:39:14.153Z,7.20
2018-07-20T08:41:43.691Z,9.60
2018-07-20T08:44:13.099Z,6.30
2018-07-20T08:46:42.445Z,5.90
2018-07-20T08:49:11.803Z,8.00
2018-07-20T08:51:41.202Z,8.93
2018-07-20T08:54:10.761Z,8.90
2018-07-20T08:56:40.142Z,7.83
2018-07-20T08:59:09.588Z,5.30
2018-07-20T09:01:39.197Z,7.20
2018-07-20T09:04:08.722Z,6.70
2018-07-20T09:06:38.259Z,6.23
2018-07-20T09:09:08.950Z,6.87
2018-07-20T09:11:38.574Z,5.23
2018-07-20T09:14:08.146Z,5.60
2018-07-20T09:16:37.446Z,5.60
2018-07-20T09:19:07.138Z,7.37
2018-07-20T09:21:36.463Z,6.33
2018-07-20T09:24:06.056Z,10.33
2018-07-20T09:26:35.536Z,4.87
2018-07-20T09:29:05.099Z,5.37
2018-07-20T09:31:34.342Z,5.73
2018-07-20T09:34:03.782Z,5.00
2018-07-20T09:36:33.038Z,5.13
2018-07-20T09:39:02.641Z,6.57
2018-07-20T09:41:31.982Z,6.73
2018-07-20T09:44:01.534Z,5.30
2018-07-20T09:46:30.820Z,6.87
2018-07-20T09:49:00.357Z,6.33
2018-07-20T09:51:29.694Z,7.30
2018-07-20T09:53:59.247Z,5.40
2018-07-20T09:56:28.729Z,9.33
2018-07-20T09:58:58.057Z,7.27
2018-07-20T10:01:27.708Z,5.90
2018-07-20T10:03:57.148Z,6.53
2018-07-20T10:06:26.575Z,9.27
2018-07-20T10:08:56.093Z,7.87
2018-07-20T10:11:29.437Z,7.60
2018-07-20T10:13:58.979Z,5.40
2018-07-20T10:16:28.504Z,7.20
2018-07-20T10:18:58.161Z,5.63
2018-07-20T10:21:27.731Z,9.33
2018-07-20T10:23:57.143Z,6.40
2018-07-20T10:26:26.602Z,7.60
2018-07-20T10:28:56.068Z,5.83
2018-07-20T10:31:25.466Z,6.33
2018-07-20T10:33:54.992Z,6.67
2018-07-20T10:36:24.327Z,5.93
2018-07-20T10:38:53.777Z,7.20
2018-07-20T10:41:23.118Z,8.20
2018-07-20T10:43:52.451Z,11.80
2018-07-20T10:46:21.812Z,8.17
2018-07-20T10:48:51.268Z,9.10
2018-07-20T10:51:20.665Z,6.30
2018-07-20T10:53:49.648Z,6.67
2018-07-20T10:56:18.973Z,7.57
2018-07-20T10:58:48.268Z,6.80
2018-07-20T11:01:17.623Z,7.10
2018-07-20T11:03:47.081Z,6.10
2018-07-20T11:06:16.397Z,9.63
2018-07-20T11:08:48.660Z,7.53
2018-07-20T11:11:18.210Z,6.80
2018-07-20T11:13:47.860Z,5.83
2018-07-20T11:16:17.205Z,6.17
2018-07-20T11:18:46.675Z,7.60
2018-07-20T11:21:16.084Z,8.43
2018-07-20T11:23:45.582Z,7.80
2018-07-20T11:26:14.991Z,6.77
2018-07-20T11:28:44.334Z,7.00
2018-07-20T11:31:13.921Z,13.20
2018-07-20T11:33:43.370Z,6.93
2018-07-20T11:36:12.914Z,7.50
2018-07-20T11:38:44.538Z,8.40
2018-07-20T11:41:14.240Z,9.23
2018-07-20T11:43:43.710Z,10.20
2018-07-20T11:46:13.122Z,7.40
2018-07-20T11:48:42.571Z,8.63
2018-07-20T11:51:12.046Z,8.47
2018-07-20T11:53:41.458Z,13.10
2018-07-20T11:56:10.939Z,11.10
2018-07-20T11:58:40.436Z,8.50
2018-07-20T12:01:09.892Z,8.43
2018-07-20T12:03:39.373Z,8.73
2018-07-20T12:06:08.806Z,8.00
2018-07-20T12:08:38.292Z,7.40
2018-07-20T12:11:07.725Z,7.50
2018-07-20T12:13:37.442Z,6.93
2018-07-20T12:16:06.795Z,9.73
2018-07-20T12:18:36.233Z,8.17
2018-07-20T12:21:05.702Z,9.30
2018-07-20T12:23:35.524Z,7.10
2018-07-20T12:26:04.958Z,7.00
2018-07-20T12:28:34.422Z,11.07
2018-07-20T12:31:03.740Z,8.47
2018-07-20T12:33:33.287Z,12.77
2018-07-20T12:36:03.103Z,7.73
2018-07-20T12:38:32.423Z,8.33
2018-07-20T12:41:02.087Z,8.50
2018-07-20T12:43:31.503Z,8.53
2018-07-20T12:46:00.866Z,7.00
2018-07-20T12:48:30.227Z,8.17
2018-07-20T12:50:59.667Z,8.83
2018-07-20T12:53:29.282Z,6.30
2018-07-20T12:55:58.254Z,9.97
2018-07-20T12:58:27.628Z,9.20
2018-07-20T13:00:56.885Z,15.33
2018-07-20T13:03:26.272Z,7.37
2018-07-20T13:05:55.730Z,7.83
2018-07-20T13:08:25.106Z,7.23
2018-07-20T13:10:54.391Z,8.10
2018-07-20T13:13:23.790Z,7.20
2018-07-20T13:15:53.406Z,12.20
2018-07-20T13:18:22.753Z,7.37
2018-07-20T13:20:52.145Z,9.03
2018-07-20T13:23:21.682Z,7.83
2018-07-20T13:25:51.068Z,7.83
2018-07-20T13:28:20.483Z,8.93
2018-07-20T13:30:49.841Z,7.03
2018-07-20T13:33:19.352Z,14.23
2018-07-20T13:35:48.771Z,7.30
2018-07-20T13:38:18.086Z,8.33
2018-07-20T13:40:47.521Z,7.83
2018-07-20T13:43:16.907Z,7.13
2018-07-20T13:45:46.211Z,6.67
2018-07-20T13:48:15.645Z,7.30
2018-07-20T13:50:44.892Z,8.97
2018-07-20T13:53:14.525Z,8.10
2018-07-20T13:55:43.923Z,7.50
2018-07-20T13:58:13.284Z,8.20
2018-07-20T14:00:42.612Z,8.63
2018-07-20T14:03:12.017Z,8.33
2018-07-20T14:05:41.562Z,10.67
2018-07-20T14:08:10.890Z,12.10
2018-07-20T14:10:40.351Z,7.80
2018-07-20T14:13:09.685Z,11.17
2018-07-20T14:15:39.090Z,8.40
2018-07-20T14:18:08.775Z,9.10
2018-07-20T14:20:38.084Z,12.83
2018-07-20T14:23:07.354Z,7.40
2018-07-20T14:25:36.833Z,7.43
2018-07-20T14:28:06.236Z,6.63
2018-07-20T14:30:35.664Z,8.30
2018-07-20T14:33:05.128Z,6.50
2018-07-20T14:35:34.706Z,7.00
2018-07-20T14:38:04.106Z,13.30
2018-07-20T14:40:33.539Z,8.70
2018-07-20T14:43:02.681Z,6.43
2018-07-20T14:45:32.087Z,7.17
2018-07-20T14:48:01.717Z,7.67
2018-07-20T14:50:31.055Z,8.37
2018-07-20T14:53:00.600Z,8.30
2018-07-20T14:55:29.967Z,6.17
2018-07-20T14:57:59.845Z,8.30
2018-07-20T15:00:29.202Z,7.20
2018-07-20T15:02:58.784Z,5.60
2018-07-20T15:05:28.245Z,11.73
2018-07-20T15:07:57.810Z,6.00
2018-07-20T15:10:27.295Z,6.33
2018-07-20T15:12:56.917Z,11.23
2018-07-20T15:15:26.492Z,5.97
2018-07-20T15:17:55.961Z,7.37
2018-07-20T15:20:25.677Z,6.00
2018-07-20T15:22:55.282Z,6.13
2018-07-20T15:25:24.787Z,6.17
2018-07-20T15:27:54.450Z,7.97
2018-07-20T15:30:24.005Z,7.17
2018-07-20T15:32:53.408Z,8.27
2018-07-20T15:35:23.104Z,7.93
2018-07-20T15:37:52.480Z,7.10
2018-07-20T15:40:21.952Z,9.43
2018-07-20T15:42:51.575Z,7.30
2018-07-20T15:45:21.066Z,7.87
2018-07-20T15:47:50.431Z,9.00
2018-07-20T15:50:19.991Z,12.20
2018-07-20T15:55:18.755Z,13.60
2018-07-20T15:57:48.188Z,8.07
2018-07-20T16:00:17.564Z,9.40
2018-07-20T16:02:46.898Z,10.30
2018-07-20T16:05:16.472Z,10.20
2018-07-20T16:07:45.857Z,10.10
2018-07-20T16:10:15.219Z,10.33
2018-07-20T16:12:44.649Z,10.10
2018-07-20T16:15:14.239Z,13.43
2018-07-20T16:17:43.610Z,16.30
2018-07-20T16:20:12.949Z,11.23
2018-07-20T16:22:42.375Z,10.90
2018-07-20T16:25:11.720Z,12.10
2018-07-20T16:27:41.402Z,12.43
2018-07-20T16:30:10.785Z,11.40
2018-07-20T16:32:40.145Z,18.30
2018-07-20T16:35:09.664Z,9.93
2018-07-20T16:37:39.360Z,10.83
2018-07-20T16:40:08.656Z,11.93
2018-07-20T16:42:38.003Z,10.23
2018-07-20T16:45:07.665Z,12.63
2018-07-20T16:47:37.079Z,15.13
2018-07-20T16:50:06.812Z,12.77
2018-07-20T16:52:36.172Z,12.83
2018-07-20T16:55:05.567Z,10.90
2018-07-20T16:57:35.036Z,10.50
2018-07-20T17:00:05.041Z,12.33
2018-07-20T17:02:34.930Z,10.27
2018-07-20T17:05:04.484Z,9.53
2018-07-20T17:07:34.036Z,12.90
2018-07-20T17:10:03.504Z,11.83
2018-07-20T17:12:32.637Z,10.80
2018-07-20T17:15:01.958Z,10.17
2018-07-20T17:17:31.322Z,12.63
2018-07-20T17:20:00.903Z,10.40
2018-07-20T17:22:29.977Z,11.57
2018-07-20T17:24:59.558Z,12.30
2018-07-20T17:27:29.022Z,12.63
2018-07-20T17:29:58.509Z,13.03
2018-07-20T17:32:28.218Z,10.60
2018-07-20T17:34:57.765Z,12.00
2018-07-20T17:37:27.298Z,9.70
2018-07-20T17:39:56.819Z,11.20
2018-07-20T17:42:26.338Z,17.50
2018-07-20T17:44:55.739Z,9.37
2018-07-20T17:47:25.548Z,11.63
2018-07-20T17:49:54.916Z,9.80
2018-07-20T17:52:24.362Z,9.43
2018-07-20T17:54:54.111Z,11.90
2018-07-20T17:57:23.815Z,9.43
2018-07-20T17:59:53.507Z,8.77
2018-07-20T18:02:22.943Z,10.00
2018-07-20T18:04:52.864Z,10.47
2018-07-20T18:07:22.336Z,10.53
2018-07-20T18:09:51.806Z,11.50
2018-07-20T18:12:21.549Z,14.90
2018-07-20T18:14:50.919Z,11.57
2018-07-20T18:17:19.950Z,15.57
2018-07-20T18:19:50.105Z,12.33
2018-07-20T18:22:19.606Z,16.43
2018-07-20T18:24:48.982Z,11.77
2018-07-20T18:27:18.727Z,10.87
2018-07-20T18:29:48.058Z,11.80
2018-07-20T18:32:18.971Z,16.33
2018-07-20T18:34:48.650Z,12.03
2018-07-20T18:37:18.281Z,11.93
2018-07-20T18:39:47.828Z,10.20
2018-07-20T18:42:17.408Z,11.33
2018-07-20T18:44:46.554Z,9.20
2018-07-20T18:47:16.364Z,9.00
2018-07-20T18:49:46.381Z,13.40
2018-07-20T18:52:15.822Z,10.80
2018-07-20T18:54:45.080Z,11.80
2018-07-20T18:57:14.600Z,13.50
2018-07-20T18:59:44.199Z,10.43
2018-07-20T19:02:13.823Z,11.50
2018-07-20T19:04:43.156Z,13.03
2018-07-20T19:07:12.687Z,12.77
2018-07-20T19:09:42.044Z,13.90
2018-07-20T19:12:11.701Z,11.50
2018-07-20T19:14:41.149Z,12.43
2018-07-20T19:17:10.740Z,11.87
2018-07-20T19:19:40.191Z,12.73
2018-07-20T19:22:09.724Z,11.00
2018-07-20T19:24:39.034Z,10.87
2018-07-20T19:27:08.355Z,17.37
2018-07-20T19:29:37.708Z,14.20
2018-07-20T19:32:07.124Z,10.40
2018-07-20T19:34:36.427Z,17.27
2018-07-20T19:37:06.035Z,13.90
2018-07-20T19:39:35.473Z,15.83
2018-07-20T19:42:04.943Z,14.70
2018-07-20T19:44:35.169Z,14.20
2018-07-20T19:47:04.583Z,10.00
2018-07-20T19:49:33.964Z,10.97
2018-07-20T19:52:03.464Z,16.93
2018-07-20T19:54:32.866Z,14.90
2018-07-20T19:57:02.354Z,9.50
2018-07-20T19:59:31.866Z,11.60
2018-07-20T20:02:01.257Z,12.73
2018-07-20T20:04:30.627Z,13.90
2018-07-20T20:06:59.972Z,13.73
2018-07-20T20:09:29.638Z,10.43
2018-07-20T20:11:59.064Z,12.60
2018-07-20T20:14:28.671Z,10.87
2018-07-20T20:16:58.144Z,12.30
2018-07-20T20:19:30.282Z,12.30
2018-07-20T20:21:59.895Z,10.73
2018-07-20T20:24:29.355Z,11.43
2018-07-20T20:26:58.704Z,13.57
2018-07-20T20:29:28.149Z,12.33
2018-07-20T20:31:57.950Z,11.87
2018-07-20T20:34:28.319Z,10.90
2018-07-20T20:36:57.744Z,12.30
2018-07-20T20:39:27.242Z,14.00
2018-07-20T20:41:56.692Z,13.30
2018-07-20T20:44:26.494Z,16.83
2018-07-20T20:46:55.861Z,14.30
2018-07-20T20:49:25.397Z,11.90
2018-07-20T20:51:54.929Z,12.90
2018-07-20T20:54:24.231Z,12.07
2018-07-20T20:56:53.802Z,9.93
2018-07-20T20:59:23.318Z,11.10
2018-07-20T21:01:52.667Z,11.10
2018-07-20T21:04:22.153Z,9.63
2018-07-20T21:06:51.609Z,10.00
2018-07-20T21:09:21.255Z,12.90
2018-07-20T21:11:50.853Z,13.90
2018-07-20T21:14:20.598Z,11.83
2018-07-20T21:16:50.043Z,13.50
2018-07-20T21:19:19.481Z,13.53
2018-07-20T21:21:48.939Z,9.67
2018-07-20T21:24:18.437Z,12.63
2018-07-20T21:26:47.735Z,9.67
2018-07-20T21:29:17.171Z,9.97
2018-07-20T21:31:46.759Z,9.43
2018-07-20T21:34:16.075Z,9.40
2018-07-20T21:36:45.544Z,8.90
2018-07-20T21:39:15.046Z,8.60
2018-07-20T21:41:44.856Z,10.17
2018-07-20T21:44:14.290Z,9.27
2018-07-20T21:46:44.002Z,9.53
2018-07-20T21:49:13.348Z,10.33
2018-07-20T21:51:42.844Z,9.67
2018-07-20T21:54:12.195Z,8.50
2018-07-20T21:56:41.728Z,10.30
2018-07-20T21:59:11.245Z,9.60
2018-07-20T22:01:40.784Z,13.13
2018-07-20T22:04:10.268Z,7.17
2018-07-20T22:06:39.876Z,9.80
2018-07-20T22:09:11.578Z,9.57
2018-07-20T22:11:41.387Z,8.63
2018-07-20T22:14:11.151Z,8.33
2018-07-20T22:16:40.695Z,11.07
2018-07-20T22:19:10.131Z,10.27
2018-07-20T22:21:39.342Z,12.23
2018-07-20T22:24:08.896Z,9.00
2018-07-20T22:26:38.419Z,8.83
2018-07-20T22:29:07.935Z,11.53
2018-07-20T22:31:37.656Z,10.80
2018-07-20T22:34:07.099Z,9.90
2018-07-20T22:36:36.575Z,11.47
2018-07-20T22:39:09.407Z,12.27
2018-07-20T22:41:38.872Z,10.40
2018-07-20T22:44:08.504Z,15.00
2018-07-20T22:46:38.182Z,11.17
2018-07-20T22:49:07.659Z,15.40
2018-07-20T22:51:37.169Z,14.40
2018-07-20T22:54:06.717Z,16.07
2018-07-20T22:56:36.308Z,12.10
2018-07-20T22:59:05.996Z,11.63
2018-07-20T23:01:35.756Z,10.57
2018-07-20T23:04:05.128Z,10.67
2018-07-20T23:06:34.716Z,9.60
2018-07-20T23:09:05.885Z,12.83
2018-07-20T23:11:35.299Z,9.97
2018-07-20T23:14:05.012Z,11.50
2018-07-20T23:16:34.448Z,12.97
2018-07-20T23:19:03.847Z,17.13
2018-07-20T23:21:33.454Z,13.70
2018-07-20T23:24:03.215Z,12.10
2018-07-20T23:26:32.751Z,13.90
2018-07-20T23:29:02.389Z,11.93
2018-07-20T23:31:31.923Z,15.37
2018-07-20T23:34:01.521Z,18.67
2018-07-20T23:36:31.211Z,12.10
2018-07-20T23:39:00.776Z,12.10
2018-07-20T23:41:30.349Z,11.07
2018-07-20T23:43:59.987Z,13.77
2018-07-20T23:46:29.529Z,12.73
2018-07-20T23:48:59.231Z,9.90
2018-07-20T23:51:29.071Z,13.70
2018-07-20T23:53:58.554Z,12.97
2018-07-20T23:56:28.258Z,12.37
2018-07-20T23:58:57.725Z,9.20
